KLSE/LSE METAR and TAF weather

Enter ICAO airport designator
Station Type Date Time Source
KLSE METAR 2020/03/28 07:53 UTC NOAA

KLSE 280753Z AUTO 07006KT 3SM -RA BR OVC009 08/06 A2977 RMK AO2 RAE07B25 SLP081 P0002 T00780056


Station Type Date Time Source
KLSE Decoded METAR 2020/03/28 07:53 UTC NOAA

LA CROSSE MUNICIPAL AIRPORT , WI, United States (KLSE) 43-53N 091-15W 200M
Mar 28, 2020 - 03:53 AM EDT / 2020.03.28 0753 UTC
Wind: from the ENE (070 degrees) at 7 MPH (6 KT):0
Visibility: 3 mile(s):0
Sky conditions: overcast
Weather: light rain; mist
Precipitation last hour: 0.02 inches
Temperature: 46.0 F (7.8 C)
Dew Point: 42.1 F (5.6 C)
Relative Humidity: 85%
Pressure (altimeter): 29.77 in. Hg (1008 hPa)
ob: KLSE 280753Z AUTO 07006KT 3SM -RA BR OVC009 08/06 A2977 RMK AO2 RAE07B25 SLP081 P0002 T00780056
cycle: 8

Station Type Date Time Source
KLSE TAF 2020/03/28 06:22 UTC NOAA

TAF KLSE 280520Z 2806/2906 08011KT 6SM -RA BR BKN010
FM281800 09011KT 6SM -RA BR SCT009 BKN012
FM282100 08012G24KT 6SM RA VCTS SCT009 BKN015CB
FM290300 11008KT 4SM -RA BR BKN009

Example: see airport list